Time;durP1;ratioP1;P1;durP2;ratioP2;P2;SDS_P1;SDS_P2;PMS_P1;PMS_P2;Temp;Humidity;BMP_temperature;BMP_pressure;BME280_temperature;BME280_humidity;BME280_pressure;Samples;Min_cycle;Max_cycle;Signal;HPM_P1;HPM_P2
2022/09/19 00:01:58;;;;;;;13.07;1.95;;;11.90;99.90;;;;;;4978171;28;20054;-76
2022/09/19 00:04:44;;;;;;;12.77;2.25;;;11.90;99.90;;;;;;4981507;28;20085;-75
2022/09/19 00:07:30;;;;;;;13.32;2.63;;;11.90;99.90;;;;;;4981794;28;20050;-75
2022/09/19 00:10:16;;;;;;;8.85;1.80;;;11.90;99.90;;;;;;4973634;28;20054;-76
2022/09/19 00:13:06;;;;;;;11.35;2.42;;;11.90;99.90;;;;;;4985647;28;20529;-75
2022/09/19 00:15:52;;;;;;;11.55;1.98;;;11.80;99.90;;;;;;4982739;28;20133;-77
2022/09/19 00:18:38;;;;;;;16.02;2.30;;;11.80;99.90;;;;;;4987763;28;20451;-76
2022/09/19 00:21:34;;;;;;;14.05;2.10;;;11.80;99.90;;;;;;4979953;28;20054;-76
2022/09/19 00:27:26;;;;;;;8.23;1.58;;;11.80;99.90;;;;;;4973357;28;20400;-75
2022/09/19 00:30:12;;;;;;;12.60;2.28;;;11.80;99.90;;;;;;4971553;28;20046;-75
2022/09/19 00:33:00;;;;;;;13.60;2.00;;;11.80;99.90;;;;;;4983607;28;20487;-75
2022/09/19 00:35:50;;;;;;;10.50;1.85;;;11.80;99.90;;;;;;4975745;28;20553;-76
2022/09/19 00:38:37;;;;;;;8.57;1.50;;;11.80;99.90;;;;;;4979208;28;20074;-75
2022/09/19 00:41:26;;;;;;;8.55;1.80;;;11.80;99.90;;;;;;4970252;28;20129;-76
2022/09/19 00:44:21;;;;;;;6.78;1.70;;;11.80;99.90;;;;;;4990865;28;20054;-75
2022/09/19 00:47:22;;;;;;;10.95;2.05;;;11.80;99.90;;;;;;4979304;28;20043;-75
2022/09/19 00:50:26;;;;;;;12.75;1.77;;;11.80;99.90;;;;;;4986314;28;20149;-75
2022/09/19 00:53:24;;;;;;;14.23;1.80;;;11.80;99.90;;;;;;4977982;28;20133;-76
2022/09/19 00:56:10;;;;;;;11.63;2.00;;;11.80;99.90;;;;;;4978198;28;20042;-76
2022/09/19 00:58:58;;;;;;;14.82;2.00;;;11.80;99.90;;;;;;4989198;28;20050;-76
2022/09/19 01:01:45;;;;;;;13.23;1.92;;;11.80;99.90;;;;;;4985773;28;20046;-75
2022/09/19 01:04:34;;;;;;;11.48;1.83;;;11.80;99.90;;;;;;4980882;28;20109;-75
2022/09/19 01:07:33;;;;;;;15.63;2.13;;;11.80;99.90;;;;;;4982777;28;20058;-76
2022/09/19 01:10:27;;;;;;;14.07;2.00;;;11.80;99.90;;;;;;4981227;28;20047;-75
2022/09/19 01:13:49;;;;;;;9.68;1.80;;;11.80;99.90;;;;;;4978060;28;20114;-75
2022/09/19 01:16:50;;;;;;;18.58;2.17;;;11.80;99.90;;;;;;4984911;28;20048;-75
2022/09/19 01:19:57;;;;;;;13.10;1.95;;;11.70;99.90;;;;;;4977575;28;20046;-76
2022/09/19 01:23:03;;;;;;;12.93;2.40;;;11.70;99.90;;;;;;4973913;28;20042;-75
2022/09/19 01:25:56;;;;;;;12.20;1.88;;;11.70;99.90;;;;;;4984215;28;20523;-75
2022/09/19 01:28:55;;;;;;;13.23;1.95;;;11.70;99.90;;;;;;4978031;28;20058;-76
2022/09/19 01:31:45;;;;;;;12.40;2.20;;;11.70;99.90;;;;;;4982599;28;20050;-76
2022/09/19 01:34:37;;;;;;;15.93;2.10;;;11.70;99.90;;;;;;4980621;28;20078;-76
2022/09/19 01:37:30;;;;;;;12.18;2.08;;;11.70;99.90;;;;;;4984707;28;20049;-75
2022/09/19 01:40:17;;;;;;;12.25;1.95;;;11.70;99.90;;;;;;4986809;28;20096;-77
2022/09/19 01:43:06;;;;;;;15.35;1.85;;;11.70;99.90;;;;;;4973854;28;20042;-75
2022/09/19 01:45:57;;;;;;;18.33;2.47;;;11.70;99.90;;;;;;4972569;28;20561;-76
2022/09/19 01:48:59;;;;;;;15.05;2.65;;;11.70;99.90;;;;;;4982812;28;20410;-75
2022/09/19 01:51:50;;;;;;;13.65;2.00;;;11.70;99.90;;;;;;4985719;28;20050;-75
2022/09/19 01:54:47;;;;;;;12.18;1.70;;;11.70;99.90;;;;;;4984368;28;20137;-75
2022/09/19 01:58:07;;;;;;;13.32;1.98;;;11.60;99.90;;;;;;4982823;28;20042;-75
2022/09/19 02:01:02;;;;;;;13.43;2.25;;;11.60;99.90;;;;;;4984381;28;20410;-75
2022/09/19 02:04:03;;;;;;;19.83;2.78;;;11.60;99.90;;;;;;4971212;28;20039;-76
2022/09/19 02:06:54;;;;;;;16.30;2.40;;;11.60;99.90;;;;;;4986380;28;20045;-75
2022/09/19 02:10:01;;;;;;;14.55;2.35;;;11.60;99.90;;;;;;4982629;28;20065;-76
2022/09/19 02:12:52;;;;;;;15.65;2.50;;;11.60;99.90;;;;;;4979522;28;20058;-76
2022/09/19 02:15:41;;;;;;;16.00;2.63;;;11.60;99.90;;;;;;4984523;28;20057;-75
2022/09/19 02:18:32;;;;;;;23.88;2.95;;;11.60;99.90;;;;;;4973871;28;20166;-76
2022/09/19 02:21:25;;;;;;;16.83;2.40;;;11.70;99.90;;;;;;4970928;28;20055;-76
2022/09/19 02:24:14;;;;;;;;;;;11.60;99.90;;;;;;4986993;28;20050;-76
2022/09/19 02:27:09;;;;;;;15.45;2.50;;;11.60;99.90;;;;;;4984585;28;19922;-76
2022/09/19 02:30:02;;;;;;;26.23;2.85;;;11.60;99.90;;;;;;4982514;28;20783;-76
2022/09/19 02:32:50;;;;;;;21.55;2.30;;;11.60;99.90;;;;;;4984354;28;20129;-76
2022/09/19 02:35:43;;;;;;;16.40;2.30;;;11.50;99.90;;;;;;4983977;28;20054;-76
2022/09/19 02:38:39;;;;;;;23.23;2.72;;;11.50;99.90;;;;;;4977500;28;20045;-74
2022/09/19 02:41:49;;;;;;;18.45;2.20;;;11.50;99.90;;;;;;4985402;28;20061;-74
2022/09/19 02:44:57;;;;;;;15.07;2.63;;;11.50;99.90;;;;;;4980260;28;20050;-74
2022/09/19 02:47:57;;;;;;;19.60;2.33;;;11.60;99.90;;;;;;4980813;28;20553;-74
2022/09/19 02:50:59;;;;;;;17.48;2.53;;;11.60;99.90;;;;;;4981389;28;20531;-75
2022/09/19 02:53:56;;;;;;;15.60;2.58;;;11.60;99.90;;;;;;4960903;28;20049;-75
2022/09/19 02:56:43;;;;;;;12.73;2.33;;;11.60;99.90;;;;;;4980382;28;20506;-75
2022/09/19 02:59:34;;;;;;;18.00;2.40;;;11.50;99.90;;;;;;4976655;28;20042;-75
2022/09/19 03:02:23;;;;;;;19.10;3.10;;;11.50;99.90;;;;;;4990237;28;20056;-75
2022/09/19 03:05:19;;;;;;;19.77;2.60;;;11.50;99.90;;;;;;4989082;28;20093;-74
2022/09/19 03:08:08;;;;;;;24.58;2.70;;;11.50;99.90;;;;;;4979511;28;20054;-74
2022/09/19 03:10:58;;;;;;;21.23;3.15;;;11.50;99.90;;;;;;4981766;28;20110;-74
2022/09/19 03:13:45;;;;;;;19.20;2.72;;;11.40;99.90;;;;;;4982084;28;20048;-73
2022/09/19 03:16:41;;;;;;;14.30;2.28;;;11.40;99.90;;;;;;4984004;28;20105;-74
2022/09/19 03:19:30;;;;;;;17.65;2.20;;;11.40;99.90;;;;;;4986528;28;20569;-74
2022/09/19 03:22:16;;;;;;;18.20;2.67;;;11.40;99.90;;;;;;4984695;28;20104;-74
2022/09/19 03:25:02;;;;;;;12.77;1.92;;;11.50;99.90;;;;;;4993152;28;20053;-74
2022/09/19 03:27:49;;;;;;;18.60;2.25;;;11.40;99.90;;;;;;4992288;28;20069;-74
2022/09/19 03:30:34;;;;;;;14.88;2.42;;;11.40;99.90;;;;;;4988703;28;20653;-74
2022/09/19 03:33:20;;;;;;;23.85;2.60;;;11.30;99.90;;;;;;4989824;28;20097;-74
2022/09/19 03:36:07;;;;;;;15.50;1.90;;;11.30;99.90;;;;;;4984614;28;20042;-74
2022/09/19 03:39:00;;;;;;;12.23;2.15;;;11.30;99.90;;;;;;4980925;28;20049;-74
2022/09/19 03:41:46;;;;;;;13.07;1.90;;;11.20;99.90;;;;;;4976203;28;20169;-75
2022/09/19 03:44:32;;;;;;;14.02;2.28;;;11.20;99.90;;;;;;4989533;28;20058;-74
2022/09/19 03:47:20;;;;;;;19.15;2.70;;;11.10;99.90;;;;;;4984815;28;20042;-75
2022/09/19 03:50:06;;;;;;;15.68;2.15;;;11.10;99.90;;;;;;4980949;28;20442;-75
2022/09/19 03:52:52;;;;;;;18.38;2.80;;;11.10;99.90;;;;;;4993318;28;20393;-74
2022/09/19 03:55:38;;;;;;;17.08;2.60;;;11.10;99.90;;;;;;4968428;28;20097;-74
2022/09/19 03:58:24;;;;;;;20.65;2.78;;;11.20;99.90;;;;;;4985008;28;20046;-75
2022/09/19 04:01:12;;;;;;;23.40;2.45;;;11.30;99.90;;;;;;4971263;28;20489;-75
2022/09/19 04:03:59;;;;;;;14.30;2.30;;;11.30;99.90;;;;;;4986817;28;20054;-75
2022/09/19 04:06:45;;;;;;;19.23;2.35;;;11.30;99.90;;;;;;4983629;28;20046;-75
2022/09/19 04:09:31;;;;;;;19.27;2.65;;;11.30;99.90;;;;;;4970860;28;20051;-75
2022/09/19 04:12:17;;;;;;;17.42;2.80;;;11.30;99.90;;;;;;4990209;28;20050;-75
2022/09/19 04:15:04;;;;;;;18.80;2.47;;;11.30;99.90;;;;;;4992072;28;20502;-75
2022/09/19 04:17:50;;;;;;;13.68;2.60;;;11.30;99.90;;;;;;4991131;28;20051;-75
2022/09/19 04:20:38;;;;;;;18.00;2.58;;;11.30;99.90;;;;;;4984229;28;20046;-74
2022/09/19 04:23:25;;;;;;;11.65;2.10;;;11.30;99.90;;;;;;4961529;28;20125;-75
2022/09/19 04:26:12;;;;;;;14.85;2.30;;;11.30;99.90;;;;;;4985994;28;20042;-75
2022/09/19 04:29:02;;;;;;;18.20;2.63;;;11.30;99.90;;;;;;4985930;28;20509;-75
2022/09/19 04:31:48;;;;;;;19.90;2.65;;;11.30;99.90;;;;;;4991067;28;20518;-75
2022/09/19 04:34:34;;;;;;;14.70;2.22;;;11.30;99.90;;;;;;4974831;28;20054;-75
2022/09/19 04:37:20;;;;;;;18.42;2.53;;;11.30;99.90;;;;;;4982411;28;20122;-75
2022/09/19 04:40:07;;;;;;;16.95;2.20;;;11.30;99.90;;;;;;4986669;28;20101;-75
2022/09/19 04:42:52;;;;;;;20.40;2.20;;;11.30;99.90;;;;;;4974655;28;20094;-75
2022/09/19 04:45:40;;;;;;;14.55;2.35;;;11.30;99.90;;;;;;4980315;28;20038;-75
2022/09/19 04:48:26;;;;;;;21.20;2.47;;;11.20;99.90;;;;;;4992190;28;20128;-75
2022/09/19 04:51:12;;;;;;;26.42;3.05;;;11.20;99.90;;;;;;4989455;28;20133;-75
2022/09/19 04:54:00;;;;;;;12.13;2.15;;;11.20;99.90;;;;;;4978307;28;20100;-75
2022/09/19 04:56:46;;;;;;;13.15;2.35;;;11.10;99.90;;;;;;4990722;28;20078;-75
2022/09/19 04:59:36;;;;;;;15.23;2.17;;;11.10;99.90;;;;;;4989556;28;20082;-75
2022/09/19 05:02:22;;;;;;;16.38;2.35;;;11.10;99.90;;;;;;4990088;28;20053;-75
2022/09/19 05:05:08;;;;;;;17.73;2.20;;;11.00;99.90;;;;;;4977558;28;20051;-75
2022/09/19 05:07:54;;;;;;;19.02;2.72;;;11.00;99.90;;;;;;4973060;28;20146;-75
2022/09/19 05:10:40;;;;;;;16.70;2.50;;;11.00;99.90;;;;;;4980255;28;20521;-76
2022/09/19 05:13:30;;;;;;;17.95;2.28;;;11.00;99.90;;;;;;4977905;28;20054;-75
2022/09/19 05:16:16;;;;;;;16.02;2.00;;;11.00;99.90;;;;;;4983264;28;20058;-74
2022/09/19 05:19:02;;;;;;;18.85;2.50;;;11.00;99.90;;;;;;4989767;28;20054;-78
2022/09/19 05:21:50;;;;;;;19.45;2.83;;;11.00;99.90;;;;;;4982635;28;20054;-78
2022/09/19 05:24:37;;;;;;;21.85;2.83;;;11.10;99.90;;;;;;4986271;28;20133;-77
2022/09/19 05:27:23;;;;;;;19.23;3.00;;;11.00;99.90;;;;;;4987164;28;20058;-78
2022/09/19 05:30:10;;;;;;;16.25;2.47;;;11.00;99.90;;;;;;4990311;28;20050;-77
2022/09/19 05:32:57;;;;;;;20.42;3.47;;;11.00;99.90;;;;;;4983920;28;20096;-77
2022/09/19 05:35:43;;;;;;;18.70;2.90;;;11.10;99.90;;;;;;4982539;28;20177;-78
2022/09/19 05:38:31;;;;;;;22.65;3.00;;;11.10;99.90;;;;;;4985495;28;20602;-78
2022/09/19 05:41:17;;;;;;;15.45;2.45;;;11.20;99.90;;;;;;4983846;28;20137;-78
2022/09/19 05:44:03;;;;;;;15.23;2.50;;;11.20;99.90;;;;;;4987809;28;20044;-78
2022/09/19 05:46:52;;;;;;;23.05;2.75;;;11.20;99.90;;;;;;4989636;28;20046;-78
2022/09/19 05:49:39;;;;;;;20.33;3.13;;;11.30;99.90;;;;;;4977822;28;20073;-78
2022/09/19 05:55:29;;;;;;;17.88;2.55;;;11.30;99.90;;;;;;4978122;28;20524;-75
2022/09/19 05:58:17;;;;;;;18.13;2.92;;;11.30;99.90;;;;;;4982175;28;20054;-76
2022/09/19 06:01:07;;;;;;;18.17;2.47;;;11.40;99.90;;;;;;4986859;28;20069;-75
2022/09/19 06:03:54;;;;;;;19.80;2.35;;;11.40;99.90;;;;;;4987802;28;20076;-76
2022/09/19 06:06:39;;;;;;;22.77;2.75;;;11.30;99.90;;;;;;4982085;28;20046;-75
2022/09/19 06:09:27;;;;;;;12.43;2.22;;;11.20;99.90;;;;;;4978324;28;20137;-75
2022/09/19 06:12:13;;;;;;;21.25;2.40;;;11.20;99.90;;;;;;4967202;28;20053;-75
2022/09/19 06:15:00;;;;;;;15.45;2.15;;;11.10;99.90;;;;;;4976506;28;20112;-77
2022/09/19 06:17:49;;;;;;;12.57;2.17;;;11.10;99.90;;;;;;4980919;28;20069;-79
2022/09/19 06:20:36;;;;;;;10.95;3.03;;;11.10;99.90;;;;;;4983791;28;20042;-78
2022/09/19 06:23:22;;;;;;;19.40;2.30;;;11.10;99.90;;;;;;4980773;28;20047;-77
2022/09/19 06:26:09;;;;;;;15.23;2.20;;;11.10;99.90;;;;;;4983488;28;20038;-78
2022/09/19 06:28:55;;;;;;;12.73;2.13;;;11.10;99.90;;;;;;4979540;28;20084;-78
2022/09/19 06:31:40;;;;;;;18.30;2.40;;;11.00;99.90;;;;;;4997772;28;20046;-79
2022/09/19 06:34:26;;;;;;;14.80;2.53;;;11.10;99.90;;;;;;4985523;28;20053;-80
2022/09/19 06:37:12;;;;;;;12.48;2.10;;;11.10;99.90;;;;;;4989032;28;20542;-80
2022/09/19 06:39:58;;;;;;;12.75;2.20;;;11.10;99.90;;;;;;4986581;28;20042;-79
2022/09/19 06:42:44;;;;;;;11.88;2.08;;;11.20;99.90;;;;;;4989388;28;20184;-81
2022/09/19 06:45:37;;;;;;;17.02;2.13;;;11.20;99.90;;;;;;4991566;28;20118;-75
2022/09/19 06:48:23;;;;;;;19.92;2.35;;;11.40;99.90;;;;;;4975977;28;20479;-82
2022/09/19 06:51:09;;;;;;;14.93;2.30;;;11.30;99.90;;;;;;4983721;28;20423;-81
2022/09/19 06:53:55;;;;;;;17.40;2.20;;;11.40;99.90;;;;;;4978550;28;20089;-76
2022/09/19 06:56:41;;;;;;;14.80;2.28;;;11.40;99.90;;;;;;4991537;28;20116;-76
2022/09/19 06:59:27;;;;;;;11.52;1.95;;;11.50;99.90;;;;;;4978482;28;20578;-76
2022/09/19 07:02:13;;;;;;;17.95;2.20;;;11.50;99.90;;;;;;4977908;28;20137;-75
2022/09/19 07:04:59;;;;;;;9.70;2.00;;;11.60;99.90;;;;;;4978913;28;20074;-75
2022/09/19 07:07:45;;;;;;;13.00;1.75;;;11.60;99.90;;;;;;4991495;28;20043;-76
2022/09/19 07:10:33;;;;;;;17.00;2.17;;;11.70;99.90;;;;;;4988811;28;20077;-76
2022/09/19 07:13:19;;;;;;;15.57;2.20;;;11.70;99.90;;;;;;4985381;28;20104;-77
2022/09/19 07:16:06;;;;;;;18.52;2.88;;;11.80;99.90;;;;;;4986813;28;20046;-77
2022/09/19 07:18:52;;;;;;;9.25;1.92;;;11.90;99.90;;;;;;4972162;28;20038;-77
2022/09/19 07:21:38;;;;;;;11.15;2.10;;;12.00;99.90;;;;;;4994481;28;20084;-77
2022/09/19 07:24:24;;;;;;;13.95;2.45;;;12.10;99.90;;;;;;4978606;28;20043;-77
2022/09/19 07:27:09;;;;;;;9.52;1.58;;;12.10;99.90;;;;;;4989980;28;20042;-77
2022/09/19 07:29:55;;;;;;;11.73;1.83;;;12.10;99.90;;;;;;4987504;28;20399;-78
2022/09/19 07:32:41;;;;;;;13.40;2.20;;;12.20;99.90;;;;;;4979345;28;20141;-77
2022/09/19 07:35:29;;;;;;;14.32;2.28;;;12.20;99.90;;;;;;4975731;28;20579;-77
2022/09/19 07:38:17;;;;;;;13.57;2.13;;;12.30;99.90;;;;;;4992057;28;20050;-78
2022/09/19 07:41:03;;;;;;;13.32;2.22;;;12.40;99.90;;;;;;4981197;28;20078;-77
2022/09/19 07:43:49;;;;;;;11.85;1.88;;;12.40;99.90;;;;;;4983815;28;20125;-77
2022/09/19 07:46:35;;;;;;;13.73;2.10;;;12.50;99.90;;;;;;4986346;28;20055;-77
2022/09/19 07:49:21;;;;;;;17.08;2.20;;;12.60;99.90;;;;;;4993035;28;20572;-78
2022/09/19 07:52:07;;;;;;;15.57;2.10;;;12.60;99.90;;;;;;4972229;28;20125;-75
2022/09/19 07:54:53;;;;;;;17.23;2.42;;;12.70;99.90;;;;;;4999727;28;20467;-77
2022/09/19 07:57:39;;;;;;;20.02;2.20;;;12.80;99.90;;;;;;4969223;28;20049;-78
2022/09/19 08:00:27;;;;;;;18.15;2.10;;;12.90;99.90;;;;;;4973835;28;20049;-79
2022/09/19 08:03:15;;;;;;;16.42;2.60;;;12.90;99.90;;;;;;4968175;28;20042;-79
2022/09/19 08:06:02;;;;;;;15.10;2.33;;;13.00;99.90;;;;;;4983573;28;21546;-78
2022/09/19 08:08:47;;;;;;;17.95;2.30;;;13.00;99.90;;;;;;4975029;28;20053;-80
2022/09/19 08:11:37;;;;;;;14.65;3.35;;;13.10;99.90;;;;;;4985587;28;20054;-79
2022/09/19 08:14:23;;;;;;;15.68;2.70;;;13.20;99.90;;;;;;4986808;28;20050;-79
2022/09/19 08:17:09;;;;;;;19.92;2.95;;;13.30;99.90;;;;;;4983636;28;20411;-80
2022/09/19 08:19:56;;;;;;;21.38;2.88;;;13.40;99.90;;;;;;4985267;28;20236;-81
2022/09/19 08:22:42;;;;;;;18.73;2.83;;;13.40;99.90;;;;;;4985558;28;20406;-80
2022/09/19 08:25:30;;;;;;;14.98;2.55;;;13.50;99.90;;;;;;4993033;28;20056;-79
2022/09/19 08:28:16;;;;;;;16.17;2.70;;;13.60;99.90;;;;;;4984986;28;20046;-78
2022/09/19 08:31:03;;;;;;;18.17;2.38;;;13.60;99.90;;;;;;4983938;28;20129;-79
2022/09/19 08:33:49;;;;;;;16.73;2.35;;;13.70;99.90;;;;;;4981820;28;20046;-78
2022/09/19 08:36:36;;;;;;;15.73;2.35;;;13.80;99.90;;;;;;4985327;28;20050;-79
2022/09/19 08:39:22;;;;;;;20.90;2.90;;;13.90;99.90;;;;;;4984916;28;20913;-78
2022/09/19 08:42:19;;;;;;;12.57;2.05;;;13.90;99.90;;;;;;4976174;28;20092;-79
2022/09/19 08:45:26;;;;;;;14.40;2.58;;;14.00;99.90;;;;;;4981307;28;20054;-79
2022/09/19 08:48:20;;;;;;;16.42;3.10;;;14.10;99.90;;;;;;4982391;28;20050;-79
2022/09/19 08:51:30;;;;;;;13.70;2.28;;;14.10;99.90;;;;;;4985157;28;20045;-79
2022/09/19 08:54:23;;;;;;;15.30;2.75;;;14.20;99.90;;;;;;4948894;28;20482;-79
2022/09/19 08:57:25;;;;;;;15.48;2.47;;;14.30;99.90;;;;;;4974304;28;20108;-79
2022/09/19 09:00:39;;;;;;;15.15;2.70;;;14.40;99.90;;;;;;4976627;28;20089;-78
2022/09/19 09:03:39;;;;;;;13.70;2.22;;;14.50;99.90;;;;;;4976960;28;20061;-79
2022/09/19 09:06:54;;;;;;;15.95;2.50;;;14.60;99.90;;;;;;4971377;28;20043;-79
2022/09/19 09:10:11;;;;;;;15.10;2.47;;;14.60;99.90;;;;;;4977417;28;20078;-73
2022/09/19 09:13:20;;;;;;;14.02;2.63;;;14.80;99.90;;;;;;4978980;28;20074;-75
2022/09/19 09:16:16;;;;;;;17.75;2.80;;;15.10;99.90;;;;;;4974119;28;20055;-74
2022/09/19 09:19:02;;;;;;;15.52;2.88;;;15.30;99.90;;;;;;4986800;28;20060;-74
2022/09/19 09:22:01;;;;;;;15.65;2.40;;;15.40;99.90;;;;;;4978099;28;20467;-76
2022/09/19 09:25:02;;;;;;;11.80;2.00;;;15.60;99.90;;;;;;4990158;28;20065;-77
2022/09/19 09:28:04;;;;;;;9.75;1.60;;;15.70;99.90;;;;;;4988728;28;20053;-75
2022/09/19 09:30:52;;;;;;;9.43;1.38;;;15.40;99.90;;;;;;4978654;28;20058;-75
2022/09/19 09:33:48;;;;;;;7.93;1.48;;;15.10;99.90;;;;;;4979231;28;20039;-75
2022/09/19 09:36:49;;;;;;;10.52;2.13;;;14.80;99.90;;;;;;4978304;28;20042;-76
2022/09/19 09:39:59;;;;;;;11.52;2.08;;;14.60;99.90;;;;;;4988198;28;20054;-74
2022/09/19 09:42:57;;;;;;;8.18;1.70;;;14.60;99.90;;;;;;4979843;28;20538;-74
2022/09/19 09:45:48;;;;;;;11.52;1.88;;;14.40;99.90;;;;;;4986623;28;20053;-75
2022/09/19 09:48:36;;;;;;;12.38;2.10;;;14.30;99.90;;;;;;4987188;28;20050;-75
2022/09/19 09:51:39;;;;;;;12.68;2.15;;;14.20;99.90;;;;;;4986964;28;20465;-76
2022/09/19 09:57:52;;;;;;;13.00;2.13;;;14.10;99.90;;;;;;4989622;28;20054;-74
2022/09/19 10:04:03;;;;;;;13.85;2.35;;;14.40;99.90;;;;;;4983154;28;20129;-75
2022/09/19 10:07:40;;;;;;;15.25;2.38;;;14.60;99.90;;;;;;4983535;28;20038;-75
2022/09/19 10:10:28;;;;;;;14.68;2.42;;;14.90;99.90;;;;;;4919597;29;20447;-76
2022/09/19 10:13:27;;;;;;;11.40;2.42;;;15.10;99.90;;;;;;4925532;29;20138;-77
2022/09/19 10:16:17;;;;;;;15.65;2.55;;;15.40;99.90;;;;;;4988241;28;20112;-73
2022/09/19 10:19:19;;;;;;;15.23;2.47;;;15.60;99.90;;;;;;4977921;28;20117;-75
2022/09/19 10:22:14;;;;;;;13.57;2.38;;;15.80;99.90;;;;;;4977168;28;20054;-75
2022/09/19 10:25:09;;;;;;;12.82;2.55;;;16.00;99.90;;;;;;4981811;28;20057;-75
2022/09/19 10:27:56;;;;;;;11.15;2.17;;;16.30;99.90;;;;;;4986475;28;20044;-75
2022/09/19 10:30:54;;;;;;;13.82;2.60;;;16.40;99.90;;;;;;4979711;28;20050;-74
2022/09/19 10:33:44;;;;;;;9.95;2.10;;;16.60;99.90;;;;;;4981246;28;20046;-75
2022/09/19 10:36:34;;;;;;;10.15;1.75;;;16.90;99.90;;;;;;4986417;28;20064;-73
2022/09/19 10:39:22;;;;;;;7.70;1.65;;;17.00;99.90;;;;;;4987990;28;20078;-74
2022/09/19 10:42:26;;;;;;;11.77;2.20;;;17.20;99.90;;;;;;4980578;28;20097;-75
2022/09/19 10:45:18;;;;;;;6.50;1.42;;;17.30;99.90;;;;;;4989392;28;20046;-75
2022/09/19 10:48:20;;;;;;;5.87;1.70;;;17.40;99.90;;;;;;4977441;28;20046;-72
2022/09/19 10:51:09;;;;;;;8.80;1.95;;;17.30;99.90;;;;;;4993605;28;20043;-79
2022/09/19 10:53:56;;;;;;;10.65;2.10;;;17.10;99.90;;;;;;4978705;28;20039;-82
2022/09/19 10:56:42;;;;;;;8.93;1.77;;;16.80;99.90;;;;;;4962439;28;20058;-79
2022/09/19 10:59:36;;;;;;;18.23;2.63;;;16.50;99.90;;;;;;4964606;28;20129;-80
2022/09/19 11:02:25;;;;;;;10.55;2.38;;;16.30;99.90;;;;;;4970776;28;20141;-79
2022/09/19 11:05:24;;;;;;;16.27;2.55;;;16.30;99.90;;;;;;4969002;28;20106;-78
2022/09/19 11:08:24;;;;;;;13.30;2.47;;;16.30;99.90;;;;;;4960343;28;20043;-76
2022/09/19 11:11:37;;;;;;;16.80;2.35;;;16.40;99.90;;;;;;4985182;28;20054;-75
2022/09/19 11:14:31;;;;;;;23.80;3.63;;;16.30;99.90;;;;;;4987926;28;20050;-75
2022/09/19 11:17:46;;;;;;;33.45;4.68;;;16.20;99.90;;;;;;4982917;28;20077;-77
2022/09/19 11:21:37;;;;;;;36.35;4.57;;;16.10;99.90;;;;;;4981304;28;20521;-80
2022/09/19 11:24:40;;;;;;;16.58;2.75;;;16.00;99.90;;;;;;4956316;28;20050;-73
2022/09/19 11:28:04;;;;;;;16.42;3.33;;;15.90;99.90;;;;;;4987756;28;20126;-77
2022/09/19 11:31:05;;;;;;;12.80;2.55;;;15.70;99.90;;;;;;4990846;28;20057;-78
2022/09/19 11:33:58;;;;;;;13.50;2.60;;;15.60;99.90;;;;;;4981459;28;20299;-76
2022/09/19 11:36:44;;;;;;;9.98;2.22;;;15.50;99.90;;;;;;4991291;28;20081;-76
2022/09/19 11:39:50;;;;;;;14.80;2.78;;;15.40;99.90;;;;;;4963933;28;20065;-76
2022/09/19 11:43:06;;;;;;;11.52;2.38;;;15.50;99.90;;;;;;4984292;28;20052;-73
2022/09/19 11:46:09;;;;;;;21.52;3.03;;;15.60;99.90;;;;;;4990117;28;20046;-73
2022/09/19 11:49:38;;;;;;;22.70;3.80;;;15.70;99.90;;;;;;4988682;28;20043;-74
2022/09/19 11:52:46;;;;;;;18.60;3.00;;;15.70;99.90;;;;;;4985121;28;20039;-74
2022/09/19 11:55:58;;;;;;;17.77;3.63;;;15.60;99.90;;;;;;5004704;28;20042;-78
2022/09/19 11:59:09;;;;;;;12.00;2.33;;;15.40;99.90;;;;;;4988912;28;20049;-78
2022/09/19 12:02:20;;;;;;;8.88;2.30;;;15.00;99.90;;;;;;4982893;28;20062;-78
2022/09/19 12:05:06;;;;;;;10.82;1.95;;;14.70;99.90;;;;;;4960752;28;20410;-78
2022/09/19 12:08:28;;;;;;;7.88;1.80;;;14.30;99.90;;;;;;4986995;28;20053;-78
2022/09/19 12:11:41;;;;;;;8.18;1.70;;;14.10;99.90;;;;;;4990112;28;20490;-77
2022/09/19 12:14:34;;;;;;;10.40;1.95;;;13.90;99.90;;;;;;4976730;28;20047;-77
2022/09/19 12:17:23;;;;;;;;;;;13.80;99.90;;;;;;4985419;28;20038;-77
2022/09/19 12:20:23;;;;;;;8.32;1.75;;;13.60;99.90;;;;;;4993209;28;19922;-77
2022/09/19 12:26:49;;;;;;;9.70;1.98;;;13.60;99.90;;;;;;4954594;28;20054;-77
2022/09/19 12:29:41;;;;;;;14.02;2.45;;;13.70;99.90;;;;;;4981378;28;20050;-77
2022/09/19 12:32:53;;;;;;;11.07;2.17;;;13.70;99.90;;;;;;4986631;28;20077;-79
2022/09/19 12:35:57;;;;;;;12.88;2.30;;;14.00;99.90;;;;;;4952306;28;20146;-77
2022/09/19 12:38:50;;;;;;;12.88;2.45;;;14.50;99.90;;;;;;4975827;28;20046;-77
2022/09/19 12:41:57;;;;;;;11.80;2.55;;;15.00;99.90;;;;;;4991468;28;20046;-78
2022/09/19 12:45:11;;;;;;;13.60;2.42;;;15.60;99.90;;;;;;4975092;28;20537;-77
2022/09/19 12:48:20;;;;;;;11.27;2.13;;;16.00;99.90;;;;;;4981855;28;20138;-78
2022/09/19 12:51:11;;;;;;;13.02;2.55;;;16.60;99.90;;;;;;4978169;28;20056;-76
2022/09/19 12:54:16;;;;;;;9.65;2.30;;;17.30;99.90;;;;;;4982100;28;20043;-73
2022/09/19 12:57:08;;;;;;;13.48;2.67;;;17.90;99.90;;;;;;4993923;28;20108;-73
2022/09/19 12:59:54;;;;;;;13.85;2.55;;;18.40;99.90;;;;;;4985228;28;20050;-72
2022/09/19 13:02:53;;;;;;;10.57;1.98;;;18.60;99.90;;;;;;4988791;28;20054;-73
2022/09/19 13:05:46;;;;;;;10.63;2.30;;;18.80;99.90;;;;;;4981920;28;20133;-73
2022/09/19 13:08:40;;;;;;;11.52;2.60;;;18.80;99.90;;;;;;4976352;28;20038;-77
2022/09/19 13:11:39;;;;;;;12.52;2.58;;;18.80;99.90;;;;;;4989125;28;20077;-77
2022/09/19 13:14:40;;;;;;;12.48;2.35;;;18.70;99.90;;;;;;4987578;28;20078;-75
2022/09/19 13:23:45;;;;;;;10.07;1.70;;;18.00;99.90;;;;;;4988542;28;20046;-76
2022/09/19 13:26:35;;;;;;;10.73;1.90;;;17.20;99.90;;;;;;4982624;28;20074;-78
2022/09/19 13:29:26;;;;;;;7.65;1.75;;;16.80;99.90;;;;;;4982986;28;20042;-77
2022/09/19 13:32:34;;;;;;;11.93;2.05;;;16.30;99.90;;;;;;4992027;28;20449;-78
2022/09/19 13:35:22;;;;;;;9.50;2.08;;;15.90;99.90;;;;;;4984514;28;20054;-78
2022/09/19 13:38:26;;;;;;;12.18;2.47;;;15.60;99.90;;;;;;4987874;28;20051;-78
2022/09/19 13:41:18;;;;;;;8.35;2.05;;;15.50;99.90;;;;;;4971545;28;20126;-77
2022/09/19 13:44:13;;;;;;;7.23;1.93;;;15.50;99.90;;;;;;4987489;28;20050;-77
2022/09/19 13:47:09;;;;;;;10.38;2.15;;;15.50;99.90;;;;;;4983219;28;20038;-77
2022/09/19 13:50:17;;;;;;;10.05;1.88;;;15.50;99.90;;;;;;4966443;28;20470;-77
2022/09/19 13:53:06;;;;;;;7.55;2.03;;;15.50;99.90;;;;;;4973335;28;20136;-72
2022/09/19 13:56:00;;;;;;;12.35;1.80;;;15.60;99.90;;;;;;4981152;28;20564;-74
2022/09/19 13:58:48;;;;;;;9.40;2.15;;;16.10;99.90;;;;;;4980015;28;20050;-76
2022/09/19 14:01:39;;;;;;;8.02;1.77;;;16.50;99.90;;;;;;4975688;28;20046;-75
2022/09/19 14:04:54;;;;;;;6.70;1.95;;;16.80;99.90;;;;;;4984371;28;20053;-74
2022/09/19 14:07:56;;;;;;;11.38;2.40;;;17.20;99.90;;;;;;4998172;28;20122;-74
2022/09/19 14:10:48;;;;;;;11.25;2.53;;;17.60;99.90;;;;;;4966968;28;20161;-74
2022/09/19 14:13:37;;;;;;;9.35;2.10;;;17.70;99.90;;;;;;4969979;28;20046;-76
2022/09/19 14:16:36;;;;;;;14.48;2.75;;;17.60;99.90;;;;;;4979404;28;20065;-75
2022/09/19 14:19:43;;;;;;;11.90;2.58;;;17.70;99.90;;;;;;4981695;28;20042;-75
2022/09/19 14:22:35;;;;;;;12.35;2.13;;;17.90;99.90;;;;;;4970539;28;20042;-78
2022/09/19 14:25:25;;;;;;;12.03;2.40;;;18.40;99.90;;;;;;4982158;28;20078;-77
2022/09/19 14:28:49;;;;;;;10.00;2.15;;;19.20;99.90;;;;;;4980922;28;20050;-80
2022/09/19 14:31:54;;;;;;;13.60;2.90;;;19.50;99.90;;;;;;4982720;28;20046;-80
2022/09/19 14:34:51;;;;;;;15.13;2.85;;;19.90;99.90;;;;;;4981918;28;20113;-76
2022/09/19 14:37:49;;;;;;;15.38;2.70;;;20.20;99.90;;;;;;4978102;28;20042;-75
2022/09/19 14:40:53;;;;;;;11.23;2.20;;;20.50;99.90;;;;;;4982175;28;20096;-75
2022/09/19 14:44:00;;;;;;;12.70;2.63;;;21.10;99.90;;;;;;4969268;28;20043;-75
2022/09/19 14:46:56;;;;;;;11.00;2.20;;;21.50;99.90;;;;;;4980520;28;20046;-75
2022/09/19 14:49:55;;;;;;;16.20;2.63;;;21.60;98.80;;;;;;4981332;28;20039;-75
2022/09/19 14:52:42;;;;;;;11.18;2.30;;;21.40;98.90;;;;;;4983071;28;20073;-77
2022/09/19 14:55:39;;;;;;;10.70;2.13;;;21.10;99.10;;;;;;4984489;28;20378;-75
2022/09/19 14:58:31;;;;;;;10.63;2.53;;;20.90;98.50;;;;;;4983518;28;20061;-75
2022/09/19 15:01:37;;;;;;;9.13;2.30;;;20.90;98.70;;;;;;4970128;28;20054;-75
2022/09/19 15:04:24;;;;;;;9.60;2.25;;;21.20;97.90;;;;;;4983904;28;20507;-76
2022/09/19 15:07:10;;;;;;;11.43;2.13;;;21.70;98.70;;;;;;4985470;28;20056;-75
2022/09/19 15:09:57;;;;;;;12.27;2.38;;;22.20;98.30;;;;;;4986472;28;20054;-75
2022/09/19 15:12:43;;;;;;;10.20;2.03;;;22.40;96.80;;;;;;4982044;28;20039;-75
2022/09/19 15:15:31;;;;;;;11.20;2.47;;;22.60;95.10;;;;;;4973141;28;20089;-75